Current | Forecast
Updated: 1:00 PM JST on June 21, 2018
Observed at Matsuyama Airport, Japan
Temperature 73°F
Humidity 83%
Dew Point 68°F
Wind WSW at 6 mph
Pressure 29.68 in (Steady)
Conditions Mostly Cloudy
Visibility 5.6 miles
UV 7 out of 16
Clouds (FEW) : 1500 ft
Mostly Cloudy (BKN) : 18000 ft
Yesterday's Maximum 73°F
Yesterday's Minimum 68°F approx.
Yesterday's Cooling Degree Days 6 approx.
Sunrise4:58 AM JST
Sunset7:22 PM JST
Moon Rise12:48 PM JST
Moon Set12:34 AM JST
Moon PhaseMoon Phase
First Quarter
Raw METARMETAR RJOM 210400Z 25005KT 230V290 9000 FEW015 BKN180 BKN/// 23/20 Q1005


Monday
. High: 71° F.
Tuesday
. High: 73° F.
Wednesday
. High: 73° F.
Thursday
. High: 73° F.
Friday
. High: 73° F.
Saturday
. High: 75° F.
Sunday
. High: 77° F.
Monday
. High: 78° F.

Units: English | Metric

Find the Weather for any City, State or Zipcode, or Country:

U.S. State List | Severe Weather | Tropical Storms | Ski Conditions
United States | Canada | Central America | South America | Asia | Europe | Australia | Africa | Islands

Weather Underground

© Copyright 2018
The Weather Company, LLC